Time;durP1;ratioP1;P1;durP2;ratioP2;P2;SDS_P1;SDS_P2;PMS_P1;PMS_P2;Temp;Humidity;BMP_temperature;BMP_pressure;BME280_temperature;BME280_humidity;BME280_pressure;Samples;Min_cycle;Max_cycle;Signal;HPM_P1;HPM_P2
2022/06/12 09:30:45;;;;;;;13.18;3.17;;;17.70;90.60;;;;;;5108698;27;1263826;-53
2022/06/12 09:33:12;;;;;;;12.95;3.17;;;17.60;90.40;;;;;;5112082;28;20043;-55
2022/06/12 09:35:39;;;;;;;13.60;4.50;;;17.80;90.80;;;;;;5131352;28;20047;-47
2022/06/12 09:38:21;;;;;;;12.80;3.53;;;18.00;90.40;;;;;;5129181;28;20039;-51
2022/06/12 09:40:48;;;;;;;11.60;3.72;;;18.20;89.80;;;;;;5112577;28;20051;-55
2022/06/12 09:43:15;;;;;;;11.13;3.33;;;18.40;90.10;;;;;;5131079;28;20379;-48
2022/06/12 09:45:41;;;;;;;12.50;3.42;;;18.30;87.60;;;;;;5129855;28;20071;-51
2022/06/12 09:48:08;;;;;;;11.27;2.90;;;18.10;87.50;;;;;;5130940;28;20047;-55
2022/06/12 09:50:36;;;;;;;7.82;2.60;;;18.00;87.50;;;;;;5129882;28;20035;-51
2022/06/12 09:53:02;;;;;;;10.05;2.60;;;18.00;86.80;;;;;;5130663;28;20040;-50
2022/06/12 09:55:29;;;;;;;7.65;3.20;;;18.10;86.60;;;;;;5130502;28;20043;-54
2022/06/12 09:57:57;;;;;;;7.25;2.75;;;18.20;86.90;;;;;;5130501;28;20084;-54
2022/06/12 10:00:24;;;;;;;7.68;2.53;;;18.20;85.10;;;;;;5114933;28;20040;-56
2022/06/12 10:02:50;;;;;;;10.38;2.75;;;18.30;85.40;;;;;;5110976;28;20044;-53
2022/06/12 10:05:17;;;;;;;9.23;2.97;;;18.30;85.70;;;;;;5117243;28;20122;-48
2022/06/12 10:07:44;;;;;;;10.80;2.95;;;18.30;86.30;;;;;;5130337;28;20039;-53
2022/06/12 10:10:11;;;;;;;9.77;3.10;;;18.40;86.70;;;;;;5130343;27;20039;-55
2022/06/12 10:12:37;;;;;;;10.55;2.70;;;18.60;85.70;;;;;;5130224;28;20036;-52
2022/06/12 10:15:04;;;;;;;7.93;2.60;;;18.80;85.40;;;;;;5130313;27;20040;-54
2022/06/12 10:17:32;;;;;;;6.90;2.40;;;19.00;85.10;;;;;;5130470;28;20046;-49
2022/06/12 10:19:59;;;;;;;10.57;3.08;;;19.10;83.10;;;;;;5130068;27;20553;-54
2022/06/12 10:22:26;;;;;;;12.20;3.40;;;19.20;81.20;;;;;;5130157;28;20096;-51
2022/06/12 10:24:52;;;;;;;9.27;2.40;;;19.40;82.50;;;;;;5129886;27;20027;-51
2022/06/12 10:27:19;;;;;;;8.32;2.47;;;19.60;82.30;;;;;;5125859;28;20394;-48
2022/06/12 10:29:46;;;;;;;6.15;2.00;;;19.90;80.70;;;;;;5129697;28;20048;-53
2022/06/12 10:32:13;;;;;;;8.85;2.30;;;20.20;79.30;;;;;;5113864;28;20035;-52
2022/06/12 10:34:40;;;;;;;7.03;2.40;;;20.40;78.80;;;;;;5109745;28;20047;-48
2022/06/12 10:37:06;;;;;;;8.25;2.28;;;20.50;79.10;;;;;;5109840;28;20089;-45
2022/06/12 10:39:34;;;;;;;6.70;2.45;;;20.60;79.90;;;;;;5120914;28;20039;-51
2022/06/12 10:42:01;;;;;;;7.25;2.08;;;20.50;76.90;;;;;;5110440;27;20486;-51
2022/06/12 10:44:28;;;;;;;8.95;2.17;;;20.40;76.00;;;;;;5096349;28;20044;-52
2022/06/12 10:46:55;;;;;;;9.35;2.30;;;20.50;77.20;;;;;;5102934;28;20040;-54
2022/06/12 10:49:23;;;;;;;7.40;2.05;;;20.60;76.90;;;;;;5115897;28;20048;-50
2022/06/12 10:51:49;;;;;;;6.30;2.08;;;20.60;76.50;;;;;;5115909;28;20039;-55
2022/06/12 10:54:16;;;;;;;8.90;2.08;;;20.60;77.20;;;;;;5114885;28;20126;-49
2022/06/12 10:56:43;;;;;;;8.10;2.25;;;20.60;75.40;;;;;;5096969;28;20081;-52
2022/06/12 10:59:10;;;;;;;9.10;2.25;;;20.60;76.50;;;;;;5103511;28;20051;-51
2022/06/12 11:01:37;;;;;;;10.77;2.55;;;20.50;75.80;;;;;;5115763;28;20047;-57
2022/06/12 11:04:03;;;;;;;7.68;2.03;;;20.50;75.90;;;;;;5114545;28;20130;-52
2022/06/12 11:06:30;;;;;;;9.13;2.42;;;20.40;77.10;;;;;;5096628;28;20044;-55
2022/06/12 11:08:57;;;;;;;7.57;2.35;;;20.30;76.50;;;;;;5094767;28;20046;-49
2022/06/12 11:11:24;;;;;;;9.60;2.50;;;20.30;77.30;;;;;;5114018;28;20044;-57
2022/06/12 11:13:50;;;;;;;8.23;2.70;;;20.40;77.90;;;;;;5115345;28;20490;-52
2022/06/12 11:16:17;;;;;;;5.95;2.30;;;20.50;76.90;;;;;;5115504;28;20043;-51
2022/06/12 11:18:44;;;;;;;7.47;2.53;;;20.40;76.80;;;;;;5115355;28;20047;-51
2022/06/12 11:21:11;;;;;;;5.68;2.03;;;20.60;76.70;;;;;;5115166;28;20159;-57
2022/06/12 11:23:37;;;;;;;6.57;2.17;;;20.50;74.80;;;;;;5115180;28;20036;-50
2022/06/12 11:26:13;;;;;;;6.60;2.10;;;20.60;75.90;;;;;;5115244;28;20138;-56
2022/06/12 11:28:40;;;;;;;7.95;2.15;;;20.70;75.40;;;;;;5115092;28;20086;-49
2022/06/12 11:31:07;;;;;;;7.45;2.05;;;20.70;73.70;;;;;;5114393;27;20035;-51
2022/06/12 11:33:33;;;;;;;8.80;2.45;;;20.70;74.50;;;;;;5115058;28;20035;-50
2022/06/12 11:36:00;;;;;;;5.97;1.98;;;20.60;73.80;;;;;;5115106;28;20051;-51
2022/06/12 11:38:27;;;;;;;8.13;2.45;;;20.60;74.60;;;;;;5115100;28;20042;-54
2022/06/12 11:40:54;;;;;;;7.63;2.03;;;20.70;74.70;;;;;;5114946;28;20040;-55
2022/06/12 11:43:21;;;;;;;5.47;1.98;;;20.80;73.90;;;;;;5114787;28;20402;-53
2022/06/12 11:45:47;;;;;;;6.10;2.05;;;21.00;73.20;;;;;;5114879;28;20047;-51
2022/06/12 11:48:14;;;;;;;5.78;2.20;;;21.00;73.60;;;;;;5114897;28;20139;-54
2022/06/12 11:50:41;;;;;;;7.38;2.67;;;20.90;72.80;;;;;;5114930;28;20051;-54
2022/06/12 11:53:08;;;;;;;7.80;2.03;;;20.90;73.50;;;;;;5113732;28;20043;-54
2022/06/12 11:55:36;;;;;;;6.00;2.25;;;20.90;74.40;;;;;;5114783;28;20179;-55
2022/06/12 11:58:02;;;;;;;8.18;2.50;;;20.80;74.00;;;;;;5114553;28;20402;-55
2022/06/12 12:00:29;;;;;;;9.10;2.30;;;20.80;74.00;;;;;;5114379;28;20059;-50
2022/06/12 12:02:56;;;;;;;8.98;2.40;;;20.80;74.00;;;;;;5114385;28;20544;-53
2022/06/12 12:05:23;;;;;;;8.52;2.30;;;20.70;72.90;;;;;;5113266;28;20058;-48
2022/06/12 12:07:51;;;;;;;11.02;2.78;;;20.80;74.60;;;;;;5103861;28;20051;-54
2022/06/12 12:10:17;;;;;;;10.45;2.60;;;21.00;74.50;;;;;;5096068;28;20124;-50
2022/06/12 12:12:44;;;;;;;6.43;2.25;;;21.10;75.10;;;;;;5112479;28;20673;-49
2022/06/12 12:15:11;;;;;;;8.10;2.38;;;21.00;72.50;;;;;;5113933;28;20044;-57
2022/06/12 12:17:38;;;;;;;10.20;2.50;;;20.80;73.90;;;;;;5113258;28;20104;-51
2022/06/12 12:20:04;;;;;;;6.85;2.20;;;20.70;73.00;;;;;;5113956;28;20044;-50
2022/06/12 12:22:31;;;;;;;7.97;2.47;;;20.60;73.60;;;;;;5114190;28;20035;-50
2022/06/12 12:24:58;;;;;;;8.27;2.40;;;20.70;73.90;;;;;;5113323;28;20051;-53
2022/06/12 12:27:25;;;;;;;10.07;2.38;;;20.80;74.00;;;;;;5113926;28;20100;-50
2022/06/12 12:29:51;;;;;;;9.68;2.25;;;21.00;73.30;;;;;;5113677;28;20451;-53
2022/06/12 12:32:18;;;;;;;8.25;2.55;;;21.00;72.40;;;;;;5107858;28;20039;-53
2022/06/12 12:34:45;;;;;;;8.93;2.60;;;20.90;72.10;;;;;;5098480;28;20036;-52
2022/06/12 12:41:18;;;;;;;7.15;2.55;;;20.60;73.10;;;;;;5093720;28;20040;-55
2022/06/12 12:43:14;;;;;;;8.65;2.47;;;20.60;74.80;;;;;;5095659;28;20067;-56
2022/06/12 12:45:41;;;;;;;6.97;2.17;;;20.60;73.90;;;;;;5113311;28;20038;-54
2022/06/12 12:48:09;;;;;;;10.68;2.80;;;20.60;73.80;;;;;;5108712;28;20417;-55
2022/06/12 12:50:36;;;;;;;8.48;2.95;;;20.60;74.40;;;;;;5109910;28;20073;-57
2022/06/12 12:53:03;;;;;;;7.70;2.53;;;20.80;75.40;;;;;;5101606;28;20040;-50
2022/06/12 12:55:29;;;;;;;8.20;2.60;;;20.90;74.70;;;;;;5094897;28;20036;-56
2022/06/12 12:57:56;;;;;;;10.20;2.70;;;21.10;74.30;;;;;;5093149;28;20040;-56
2022/06/12 13:00:23;;;;;;;6.95;2.53;;;21.10;72.60;;;;;;5093189;28;20036;-57
2022/06/12 13:02:53;;;;;;;6.65;2.55;;;21.20;70.80;;;;;;5093261;28;20046;-55
2022/06/12 13:05:21;;;;;;;7.35;2.90;;;21.30;71.60;;;;;;5093069;28;20105;-52
2022/06/12 13:07:48;;;;;;;9.02;2.35;;;21.40;71.80;;;;;;5093414;28;20059;-57
2022/06/12 13:10:15;;;;;;;9.45;2.50;;;21.40;71.90;;;;;;5093399;28;20039;-54
2022/06/12 13:12:41;;;;;;;9.55;2.85;;;21.50;69.30;;;;;;5093280;28;20047;-54
2022/06/12 13:15:09;;;;;;;7.68;2.55;;;21.70;71.60;;;;;;5095671;28;20491;-55
2022/06/12 13:17:36;;;;;;;7.78;2.60;;;21.80;69.80;;;;;;5099963;28;20497;-52
2022/06/12 13:20:02;;;;;;;6.65;2.50;;;21.60;69.30;;;;;;5104435;28;20473;-55
2022/06/12 13:22:31;;;;;;;9.20;2.92;;;21.50;70.20;;;;;;5112494;28;20046;-53
2022/06/12 13:24:58;;;;;;;7.03;2.28;;;21.60;70.90;;;;;;5112422;28;20074;-50
2022/06/12 13:27:25;;;;;;;7.63;2.72;;;21.80;70.00;;;;;;5112470;28;20040;-53
2022/06/12 13:29:51;;;;;;;7.07;2.25;;;21.80;70.10;;;;;;5104220;28;20131;-54
2022/06/12 13:32:18;;;;;;;6.10;2.50;;;21.80;69.30;;;;;;5093091;28;20044;-48
2022/06/12 13:34:45;;;;;;;5.90;2.47;;;21.70;70.00;;;;;;5093014;28;20051;-56
2022/06/12 13:37:12;;;;;;;11.20;3.03;;;21.80;71.40;;;;;;5092947;28;20086;-56
2022/06/12 13:39:41;;;;;;;9.60;3.00;;;21.90;69.30;;;;;;5092957;28;20040;-52
2022/06/12 13:42:07;;;;;;;7.43;2.50;;;21.70;69.30;;;;;;5091588;28;20380;-52
2022/06/12 13:44:34;;;;;;;8.27;2.50;;;21.70;68.40;;;;;;5093002;28;20111;-52
2022/06/12 13:47:01;;;;;;;5.50;2.55;;;21.70;67.50;;;;;;5094618;28;20071;-51
2022/06/12 13:49:28;;;;;;;11.52;2.90;;;21.70;68.80;;;;;;5092997;28;20036;-50
2022/06/12 13:51:54;;;;;;;12.30;4.63;;;21.80;69.40;;;;;;5098674;28;20032;-51
2022/06/12 13:54:21;;;;;;;7.30;2.95;;;22.00;69.20;;;;;;5093075;28;20059;-51
2022/06/12 13:56:49;;;;;;;8.00;3.13;;;22.10;69.30;;;;;;5092698;28;20117;-51
2022/06/12 13:59:15;;;;;;;6.05;2.65;;;22.30;69.00;;;;;;5093209;28;20425;-55
2022/06/12 14:01:42;;;;;;;7.68;2.42;;;22.30;67.10;;;;;;5112393;28;20036;-56
2022/06/12 14:04:09;;;;;;;9.10;2.72;;;22.40;67.90;;;;;;5112450;28;20508;-51
2022/06/12 14:06:36;;;;;;;8.00;2.90;;;22.50;68.30;;;;;;5112437;28;20533;-47
2022/06/12 14:09:03;;;;;;;7.10;3.00;;;22.50;68.60;;;;;;5112559;28;20042;-54
2022/06/12 14:11:35;;;;;;;8.52;3.10;;;22.60;68.60;;;;;;5112785;28;20901;-55
2022/06/12 14:14:02;;;;;;;8.90;3.28;;;22.60;68.50;;;;;;5112638;28;20043;-55
2022/06/12 14:16:32;;;;;;;7.43;2.60;;;22.60;69.30;;;;;;5114574;28;20398;-53
2022/06/12 14:19:00;;;;;;;11.35;3.00;;;22.40;68.60;;;;;;5115379;28;20050;-52
2022/06/12 14:21:28;;;;;;;11.18;3.30;;;22.30;68.30;;;;;;5116499;28;20406;-52
2022/06/12 14:23:54;;;;;;;8.88;2.70;;;22.20;67.70;;;;;;5116632;28;20035;-55
2022/06/12 14:26:21;;;;;;;11.00;3.28;;;22.20;67.60;;;;;;5115533;28;20043;-54
2022/06/12 14:28:48;;;;;;;7.43;2.60;;;22.00;68.00;;;;;;5116342;28;20474;-54
2022/06/12 14:31:14;;;;;;;8.88;2.97;;;21.90;69.20;;;;;;5115618;28;20397;-50
2022/06/12 14:33:41;;;;;;;8.13;3.00;;;21.80;69.00;;;;;;5116321;28;20123;-55
2022/06/12 14:36:08;;;;;;;8.70;2.90;;;21.70;69.60;;;;;;5111384;28;20058;-55
2022/06/12 14:38:35;;;;;;;12.23;3.25;;;21.70;69.50;;;;;;5116086;28;20035;-52
2022/06/12 14:41:02;;;;;;;8.18;3.20;;;21.80;70.30;;;;;;5116068;28;20043;-52
2022/06/12 14:43:29;;;;;;;7.50;2.75;;;21.90;70.00;;;;;;5115210;27;20031;-56
2022/06/12 14:45:56;;;;;;;8.75;2.65;;;21.80;68.70;;;;;;5116110;28;20036;-54
2022/06/12 14:48:23;;;;;;;8.63;3.17;;;21.60;68.50;;;;;;5115151;28;20089;-51
2022/06/12 14:50:49;;;;;;;9.75;2.85;;;21.40;68.70;;;;;;5116100;28;20047;-53
2022/06/12 14:53:16;;;;;;;10.27;3.15;;;21.50;68.90;;;;;;5115881;28;20044;-57
2022/06/12 14:55:43;;;;;;;10.90;3.80;;;21.50;69.10;;;;;;5116015;28;20051;-52
2022/06/12 14:58:09;;;;;;;10.80;3.42;;;21.70;69.40;;;;;;5114716;28;20044;-53
2022/06/12 15:00:36;;;;;;;6.18;2.58;;;21.90;69.10;;;;;;5115672;28;20486;-52
2022/06/12 15:03:03;;;;;;;7.32;2.00;;;22.10;67.10;;;;;;5114973;28;20444;-56
2022/06/12 15:05:30;;;;;;;9.30;2.15;;;22.00;62.70;;;;;;5100350;28;20111;-54
2022/06/12 15:07:56;;;;;;;6.88;2.50;;;22.20;64.40;;;;;;5096092;28;20032;-55
2022/06/12 15:10:23;;;;;;;7.95;2.28;;;22.40;66.10;;;;;;5096092;28;20044;-56
2022/06/12 15:12:50;;;;;;;7.68;2.40;;;22.40;65.20;;;;;;5101120;28;20044;-57
2022/06/12 15:15:17;;;;;;;6.93;2.65;;;22.60;63.90;;;;;;5115233;28;20134;-54
2022/06/12 15:17:43;;;;;;;9.45;2.65;;;22.70;64.20;;;;;;5114554;28;20040;-52
2022/06/12 15:20:10;;;;;;;7.93;2.42;;;22.70;64.80;;;;;;5115458;28;20058;-51
2022/06/12 15:22:37;;;;;;;6.82;2.47;;;22.80;63.60;;;;;;5115595;28;20385;-50
2022/06/12 15:25:04;;;;;;;7.90;2.33;;;22.80;63.50;;;;;;5106818;28;20390;-51
2022/06/12 15:30:16;;;;;;;;;;;22.50;64.70;;;;;;5115282;28;20054;-51
2022/06/12 15:32:44;;;;;;;7.68;2.17;;;22.50;63.50;;;;;;5114541;28;20258;-56
2022/06/12 15:35:11;;;;;;;6.25;2.17;;;22.50;64.00;;;;;;5115154;28;20035;-51
2022/06/12 15:37:38;;;;;;;7.03;2.30;;;22.70;62.30;;;;;;5114159;28;20067;-50
2022/06/12 15:40:05;;;;;;;7.15;2.10;;;22.80;61.80;;;;;;5107412;28;20040;-55
2022/06/12 15:42:31;;;;;;;4.90;2.00;;;22.90;62.00;;;;;;5095123;28;20032;-55
2022/06/12 15:44:59;;;;;;;7.95;2.10;;;23.00;63.00;;;;;;5097883;28;20532;-53
2022/06/12 15:47:25;;;;;;;7.00;2.40;;;23.80;62.50;;;;;;5114109;28;20059;-56
2022/06/12 15:49:52;;;;;;;5.65;2.00;;;24.60;59.60;;;;;;5115066;28;20036;-51
2022/06/12 15:52:22;;;;;;;5.90;1.98;;;24.70;59.60;;;;;;5112333;28;20130;-55
2022/06/12 15:54:48;;;;;;;7.13;2.00;;;24.50;59.60;;;;;;5113877;28;20051;-54
2022/06/12 15:57:15;;;;;;;5.25;2.00;;;24.70;59.40;;;;;;5114613;28;20105;-53
2022/06/12 15:59:42;;;;;;;7.13;1.83;;;24.60;58.00;;;;;;5113852;28;20420;-51
2022/06/12 16:02:09;;;;;;;6.22;2.20;;;24.10;59.10;;;;;;5114364;28;20064;-58
2022/06/12 16:04:36;;;;;;;6.30;1.98;;;23.70;58.90;;;;;;5113885;28;20040;-53
2022/06/12 16:07:02;;;;;;;6.22;2.00;;;24.00;59.40;;;;;;5114359;28;20474;-53
2022/06/12 16:09:29;;;;;;;8.35;2.20;;;24.60;59.30;;;;;;5114041;28;20137;-54
2022/06/12 16:11:56;;;;;;;5.40;1.60;;;25.10;58.30;;;;;;5109056;28;20489;-54
2022/06/12 16:14:23;;;;;;;5.03;2.10;;;25.40;56.20;;;;;;5114411;28;20450;-52
2022/06/12 16:16:50;;;;;;;10.52;3.22;;;25.70;56.40;;;;;;5113445;28;20047;-57
2022/06/12 16:19:19;;;;;;;6.47;1.73;;;25.70;54.30;;;;;;5114230;28;20393;-55
2022/06/12 16:21:45;;;;;;;4.82;1.83;;;25.60;55.10;;;;;;5113378;28;20051;-54
2022/06/12 16:24:12;;;;;;;6.88;2.78;;;25.70;55.40;;;;;;5114241;28;20047;-54
2022/06/12 16:26:39;;;;;;;7.47;2.45;;;25.60;54.20;;;;;;5114154;27;20044;-53
2022/06/12 16:29:07;;;;;;;7.38;2.65;;;25.80;55.80;;;;;;5113135;28;20059;-49
2022/06/12 16:31:33;;;;;;;6.38;1.98;;;25.50;54.70;;;;;;5114093;28;20047;-53
2022/06/12 16:34:02;;;;;;;6.20;2.20;;;24.70;55.80;;;;;;5113285;28;20044;-52
2022/06/12 16:36:30;;;;;;;7.43;2.63;;;24.10;57.50;;;;;;5113983;28;20080;-54
2022/06/12 16:38:57;;;;;;;7.03;2.25;;;24.30;57.60;;;;;;5112808;28;20394;-52
2022/06/12 16:41:45;;;;;;;7.18;2.30;;;24.50;56.70;;;;;;5113575;28;20036;-56
2022/06/12 16:44:11;;;;;;;6.03;1.80;;;24.10;57.10;;;;;;5112991;28;20043;-55
2022/06/12 16:46:44;;;;;;;6.10;2.50;;;23.50;58.30;;;;;;5114061;28;20042;-54
2022/06/12 16:49:11;;;;;;;8.38;2.65;;;23.20;59.30;;;;;;5112996;28;20498;-55
2022/06/12 16:51:38;;;;;;;7.13;2.53;;;22.90;60.20;;;;;;5113514;27;20069;-52
2022/06/12 16:54:05;;;;;;;7.80;2.40;;;22.90;60.70;;;;;;5110873;28;20051;-51
2022/06/12 16:56:32;;;;;;;6.28;2.28;;;23.70;60.10;;;;;;5101556;28;20061;-55
2022/06/12 16:58:58;;;;;;;7.30;2.42;;;24.40;58.10;;;;;;5113477;28;20043;-54
2022/06/12 17:01:25;;;;;;;8.23;2.47;;;24.90;57.50;;;;;;5113459;28;20471;-56
2022/06/12 17:03:52;;;;;;;6.32;3.30;;;25.10;56.20;;;;;;5111040;28;20040;-56
2022/06/12 17:06:19;;;;;;;6.60;2.50;;;25.30;56.20;;;;;;5113483;28;20040;-54
2022/06/12 17:08:46;;;;;;;9.43;2.38;;;24.60;55.80;;;;;;5103028;28;20102;-55
2022/06/12 17:11:12;;;;;;;7.22;2.20;;;24.30;57.40;;;;;;5093817;28;20052;-55
2022/06/12 17:13:39;;;;;;;7.07;1.92;;;24.40;56.90;;;;;;5098562;28;20051;-51
2022/06/12 17:16:06;;;;;;;9.13;2.80;;;24.00;57.40;;;;;;5113210;28;20128;-54
2022/06/12 17:21:18;;;;;;;9.13;2.63;;;23.30;58.90;;;;;;5112976;28;20047;-55
2022/06/12 17:23:45;;;;;;;9.38;2.17;;;23.70;59.10;;;;;;5113099;28;20032;-53
2022/06/12 17:26:11;;;;;;;7.95;2.38;;;24.40;58.00;;;;;;5112557;28;20073;-50
2022/06/12 17:28:41;;;;;;;10.65;2.63;;;25.10;58.10;;;;;;5113144;28;20107;-55
2022/06/12 17:31:08;;;;;;;9.27;2.72;;;25.00;55.50;;;;;;5112311;28;20059;-52
2022/06/12 17:33:35;;;;;;;10.52;2.20;;;24.90;55.20;;;;;;5113063;28;20106;-56
2022/06/12 17:36:01;;;;;;;9.20;3.08;;;24.60;55.60;;;;;;5113049;28;20475;-55
2022/06/12 17:38:28;;;;;;;8.90;2.70;;;24.40;55.80;;;;;;5112387;28;20044;-54
2022/06/12 17:40:55;;;;;;;7.78;2.65;;;24.50;55.40;;;;;;5113047;28;20138;-54
2022/06/12 17:43:22;;;;;;;7.63;2.75;;;24.90;55.50;;;;;;5112081;28;20534;-56
2022/06/12 17:45:49;;;;;;;6.28;2.42;;;25.20;54.90;;;;;;5113291;28;20432;-54
2022/06/12 17:48:16;;;;;;;8.25;2.40;;;25.10;53.90;;;;;;5112936;28;20096;-55
2022/06/12 17:50:43;;;;;;;6.65;2.10;;;24.60;53.90;;;;;;5113771;28;20118;-55
2022/06/12 17:53:10;;;;;;;6.80;2.45;;;24.10;54.80;;;;;;5116233;28;20084;-54
2022/06/12 17:55:37;;;;;;;10.02;2.97;;;24.20;55.10;;;;;;5117231;28;20047;-55
2022/06/12 17:58:04;;;;;;;10.70;3.08;;;23.50;55.50;;;;;;5116218;27;20412;-56
2022/06/12 18:00:32;;;;;;;10.35;2.83;;;23.70;56.40;;;;;;5116839;28;20051;-56
2022/06/12 18:02:58;;;;;;;6.78;2.80;;;24.10;55.30;;;;;;5116794;28;20412;-57
2022/06/12 18:05:25;;;;;;;6.88;2.60;;;24.50;55.50;;;;;;5116877;28;20040;-53
2022/06/12 18:07:52;;;;;;;8.73;2.92;;;24.80;55.20;;;;;;5116985;28;20043;-56
2022/06/12 18:10:19;;;;;;;9.68;2.63;;;25.10;54.40;;;;;;5117096;28;20462;-53
2022/06/12 18:12:45;;;;;;;9.32;3.10;;;24.90;54.80;;;;;;5116705;28;20043;-54
2022/06/12 18:20:44;;;;;;;9.45;2.85;;;24.10;56.50;;;;;;5108976;28;20040;-56
2022/06/12 18:23:10;;;;;;;8.27;2.60;;;24.30;55.60;;;;;;5097022;28;20540;-55
2022/06/12 18:25:38;;;;;;;10.07;2.75;;;24.10;55.80;;;;;;5097144;28;20541;-55
2022/06/12 18:28:05;;;;;;;9.70;2.88;;;23.90;55.80;;;;;;5098606;28;20052;-52
2022/06/12 18:30:33;;;;;;;9.20;2.90;;;23.70;56.60;;;;;;5098848;28;20050;-56
2022/06/12 18:33:00;;;;;;;9.18;3.05;;;23.50;57.40;;;;;;5114040;28;20123;-49
2022/06/12 18:35:26;;;;;;;12.70;2.75;;;23.20;58.20;;;;;;5102350;28;20044;-56
2022/06/12 18:37:53;;;;;;;8.82;3.15;;;22.90;58.30;;;;;;5091540;28;20071;-53
2022/06/12 18:40:21;;;;;;;8.43;3.00;;;22.70;58.90;;;;;;5101119;28;20043;-49
2022/06/12 18:42:48;;;;;;;9.80;2.90;;;22.50;59.40;;;;;;5097152;28;20147;-50
2022/06/12 18:45:14;;;;;;;13.10;3.45;;;22.40;59.90;;;;;;5100437;28;20036;-55
2022/06/12 18:47:41;;;;;;;12.35;3.33;;;22.10;60.50;;;;;;5103578;28;20047;-55
2022/06/12 18:50:08;;;;;;;11.15;3.05;;;21.90;61.30;;;;;;5096739;28;20040;-50
2022/06/12 18:52:35;;;;;;;10.38;3.45;;;21.90;62.00;;;;;;5109565;28;20032;-54
2022/06/12 18:55:01;;;;;;;10.45;3.60;;;21.80;62.10;;;;;;5115609;28;20053;-55
2022/06/12 18:57:28;;;;;;;10.40;3.58;;;21.80;62.40;;;;;;5109003;28;20044;-56
2022/06/12 18:59:55;;;;;;;13.13;4.03;;;21.60;62.80;;;;;;5101793;28;20043;-51
2022/06/12 19:02:27;;;;;;;9.65;3.60;;;21.50;63.30;;;;;;5095375;28;20109;-56
2022/06/12 19:04:53;;;;;;;9.45;2.88;;;21.20;63.50;;;;;;5102424;28;20048;-58
2022/06/12 19:07:20;;;;;;;9.52;3.08;;;21.00;64.00;;;;;;5098482;28;20040;-56
2022/06/12 19:09:47;;;;;;;12.98;3.30;;;20.90;64.50;;;;;;5095584;28;20036;-51
2022/06/12 19:12:14;;;;;;;10.68;3.20;;;20.80;64.10;;;;;;5096024;28;20571;-53
2022/06/12 19:15:01;;;;;;;9.80;3.15;;;20.70;63.60;;;;;;5097772;28;20048;-53
2022/06/12 19:17:28;;;;;;;12.38;3.72;;;20.50;64.20;;;;;;5115349;28;20043;-52
2022/06/12 19:19:56;;;;;;;12.57;3.40;;;20.50;64.90;;;;;;5113978;28;20051;-53
2022/06/12 19:22:23;;;;;;;10.10;3.47;;;20.40;65.60;;;;;;5113814;28;20485;-56
2022/06/12 19:24:50;;;;;;;12.32;3.33;;;20.40;66.10;;;;;;5108997;28;20047;-50
2022/06/12 19:27:16;;;;;;;9.07;3.38;;;20.40;65.30;;;;;;5115048;28;20035;-53
2022/06/12 19:29:43;;;;;;;10.48;3.42;;;20.30;65.20;;;;;;5113752;28;20055;-52
2022/06/12 19:32:10;;;;;;;15.40;4.60;;;20.40;65.40;;;;;;5112582;28;20043;-53
2022/06/12 19:34:37;;;;;;;9.95;3.33;;;20.40;65.40;;;;;;5095053;28;20048;-51
2022/06/12 19:37:04;;;;;;;11.77;3.20;;;20.30;65.60;;;;;;5095248;28;20094;-53
2022/06/12 19:39:30;;;;;;;12.63;3.85;;;20.30;65.80;;;;;;5095418;28;20376;-50
2022/06/12 19:41:57;;;;;;;11.25;3.33;;;20.20;65.90;;;;;;5099498;28;20363;-49
2022/06/12 19:44:24;;;;;;;13.23;3.58;;;20.10;66.40;;;;;;5095355;28;20036;-49
2022/06/12 19:46:50;;;;;;;15.50;3.78;;;20.00;66.40;;;;;;5110453;28;20044;-53
2022/06/12 19:49:18;;;;;;;9.68;3.35;;;19.90;66.50;;;;;;5114608;28;20058;-53
2022/06/12 19:51:44;;;;;;;12.30;2.80;;;19.80;66.70;;;;;;5101214;27;20044;-47
2022/06/12 19:54:12;;;;;;;8.35;2.92;;;19.70;67.10;;;;;;5114685;28;20040;-49
2022/06/12 19:56:38;;;;;;;12.30;3.33;;;19.60;67.00;;;;;;5114489;28;20069;-53
2022/06/12 19:59:08;;;;;;;13.75;3.75;;;19.50;67.30;;;;;;5114309;28;20036;-53
2022/06/12 20:01:35;;;;;;;13.77;3.50;;;19.50;67.40;;;;;;5112584;28;20036;-54
2022/06/12 20:09:33;;;;;;;10.10;3.35;;;19.50;66.50;;;;;;5102202;28;20375;-52
2022/06/12 20:12:00;;;;;;;9.50;3.33;;;19.40;66.10;;;;;;5113971;28;20032;-53
2022/06/12 20:14:27;;;;;;;11.13;2.95;;;19.40;65.90;;;;;;5098608;28;20039;-53
2022/06/12 20:16:53;;;;;;;9.02;3.00;;;19.40;65.30;;;;;;5097953;28;20093;-48
2022/06/12 20:19:21;;;;;;;9.63;2.83;;;19.30;65.30;;;;;;5107831;28;20118;-56
2022/06/12 20:21:47;;;;;;;10.05;2.83;;;19.20;64.80;;;;;;5094372;28;20098;-54
2022/06/12 20:24:14;;;;;;;9.95;3.05;;;19.20;64.60;;;;;;5106519;28;20135;-53
2022/06/12 20:26:41;;;;;;;8.95;2.85;;;19.20;63.70;;;;;;5093719;28;20040;-56
2022/06/12 20:29:08;;;;;;;8.73;2.88;;;19.10;63.10;;;;;;5100884;28;20044;-56
2022/06/12 20:31:35;;;;;;;7.25;2.60;;;19.10;62.80;;;;;;5113073;28;20040;-51
2022/06/12 20:34:02;;;;;;;7.95;2.63;;;19.00;62.90;;;;;;5100040;28;20471;-51
2022/06/12 20:36:29;;;;;;;8.65;2.85;;;19.00;62.70;;;;;;5094284;28;20044;-55
2022/06/12 20:38:57;;;;;;;7.82;2.53;;;19.00;62.70;;;;;;5076065;28;20574;-56
2022/06/12 20:41:23;;;;;;;7.28;2.13;;;19.10;62.50;;;;;;5096849;28;20108;-52
2022/06/12 20:43:50;;;;;;;9.73;2.42;;;19.00;62.20;;;;;;5100628;28;20040;-53
2022/06/12 20:46:17;;;;;;;9.23;2.38;;;19.00;62.30;;;;;;5093940;28;20119;-56
2022/06/12 20:48:47;;;;;;;8.65;2.53;;;19.00;62.50;;;;;;5098922;28;20039;-56
2022/06/12 20:51:18;;;;;;;7.43;2.35;;;18.90;62.40;;;;;;5100906;28;20421;-52
2022/06/12 20:53:45;;;;;;;6.85;2.58;;;18.80;62.90;;;;;;5093877;28;20047;-56
2022/06/12 20:56:12;;;;;;;5.40;2.03;;;18.70;63.40;;;;;;5106462;28;20094;-53
2022/06/12 20:58:39;;;;;;;7.07;2.50;;;18.70;63.10;;;;;;5113105;28;20059;-55
2022/06/12 21:01:05;;;;;;;6.90;2.40;;;18.70;63.10;;;;;;5111122;28;20047;-52
2022/06/12 21:03:32;;;;;;;7.57;2.15;;;18.50;63.10;;;;;;5106613;28;20120;-48
2022/06/12 21:05:59;;;;;;;10.05;2.42;;;18.50;62.90;;;;;;5096086;28;20057;-53
2022/06/12 21:08:46;;;;;;;7.57;2.30;;;18.40;63.10;;;;;;5093840;28;20055;-55
2022/06/12 21:11:13;;;;;;;6.18;2.25;;;18.40;63.00;;;;;;5092534;28;20043;-54
2022/06/12 21:13:40;;;;;;;5.70;1.85;;;18.40;63.10;;;;;;5093473;28;20129;-53
2022/06/12 21:16:06;;;;;;;5.25;1.75;;;18.40;62.90;;;;;;5094455;28;20052;-50
2022/06/12 21:18:33;;;;;;;6.43;1.65;;;18.30;62.50;;;;;;5098243;28;20044;-57
2022/06/12 21:21:00;;;;;;;5.63;1.77;;;18.20;62.60;;;;;;5109472;28;20051;-53
2022/06/12 21:23:27;;;;;;;6.65;2.08;;;18.20;62.80;;;;;;5107669;28;20043;-55
2022/06/12 21:25:53;;;;;;;6.38;1.70;;;18.20;62.90;;;;;;5098929;28;20113;-50
2022/06/12 21:28:20;;;;;;;7.13;2.13;;;18.10;63.00;;;;;;5098943;28;20407;-52
2022/06/12 21:30:48;;;;;;;7.60;2.25;;;18.10;62.90;;;;;;5106060;28;20048;-51
2022/06/12 21:33:15;;;;;;;8.15;2.20;;;18.00;63.10;;;;;;5109112;28;20039;-51
2022/06/12 21:35:42;;;;;;;5.25;1.70;;;18.00;63.30;;;;;;5112802;28;20043;-56
2022/06/12 21:38:09;;;;;;;9.10;1.95;;;18.00;62.90;;;;;;5111429;28;20039;-53
2022/06/12 21:40:36;;;;;;;5.55;1.92;;;17.90;63.00;;;;;;5110317;28;20039;-56
2022/06/12 21:43:02;;;;;;;7.40;2.00;;;17.80;63.20;;;;;;5099258;28;20501;-52
2022/06/12 21:45:29;;;;;;;5.47;2.05;;;17.80;63.20;;;;;;5108699;28;20478;-52
2022/06/12 21:47:56;;;;;;;6.57;2.03;;;17.80;63.20;;;;;;5106155;28;20482;-52
2022/06/12 21:50:23;;;;;;;7.40;2.20;;;17.70;63.00;;;;;;5103404;28;20036;-52
2022/06/12 21:55:35;;;;;;;;;;;17.70;63.40;;;;;;5105256;28;20052;-54
2022/06/12 21:58:02;;;;;;;8.82;2.00;;;17.70;63.60;;;;;;5087043;28;19919;-54
2022/06/12 22:00:29;;;;;;;6.70;2.05;;;17.70;63.80;;;;;;5096851;28;20048;-56
2022/06/12 22:02:56;;;;;;;7.50;1.92;;;17.60;64.00;;;;;;5097320;28;20080;-56
2022/06/12 22:05:22;;;;;;;8.52;1.83;;;17.60;64.10;;;;;;5111352;28;20097;-51
2022/06/12 22:07:49;;;;;;;7.45;1.80;;;17.60;64.30;;;;;;5093342;28;20380;-56
2022/06/12 22:10:16;;;;;;;5.13;1.88;;;17.60;64.30;;;;;;5100375;28;20483;-55
2022/06/12 22:12:43;;;;;;;6.15;2.20;;;17.60;64.50;;;;;;5105010;28;20073;-56
2022/06/12 22:15:10;;;;;;;6.15;2.03;;;17.50;64.80;;;;;;5104763;28;20490;-51
2022/06/12 22:17:37;;;;;;;7.28;2.22;;;17.50;64.90;;;;;;5097755;28;20036;-55
2022/06/12 22:20:04;;;;;;;10.35;2.33;;;17.50;65.10;;;;;;5101226;28;20039;-52
2022/06/12 22:22:30;;;;;;;6.28;1.83;;;17.40;65.20;;;;;;5101242;28;20032;-50
2022/06/12 22:24:57;;;;;;;5.07;1.70;;;17.40;65.70;;;;;;5105255;28;20035;-54
